Time;durP1;ratioP1;P1;durP2;ratioP2;P2;SDS_P1;SDS_P2;PMS_P1;PMS_P2;Temp;Humidity;BMP_temperature;BMP_pressure;BME280_temperature;BME280_humidity;BME280_pressure;Samples;Min_cycle;Max_cycle;Signal;HPM_P1;HPM_P2
2022/03/16 04:01:01;;;;;;;3.90;3.70;;;11.00;83.10;;;;;;5802042;23;20496;-71
2022/03/16 04:03:28;;;;;;;3.87;3.67;;;10.90;83.30;;;;;;4917349;29;20433;-73
2022/03/16 04:05:54;;;;;;;4.00;3.80;;;11.00;83.20;;;;;;4917244;29;20508;-72
2022/03/16 04:08:21;;;;;;;3.80;3.60;;;10.90;83.40;;;;;;4917260;29;20875;-73
2022/03/16 04:10:48;;;;;;;3.63;3.43;;;11.00;83.10;;;;;;4916940;29;20992;-72
2022/03/16 04:13:14;;;;;;;3.40;3.30;;;11.10;83.00;;;;;;4917169;29;20463;-73
2022/03/16 04:15:41;;;;;;;3.43;3.30;;;11.10;82.80;;;;;;4918295;29;20465;-72
2022/03/16 04:18:09;;;;;;;3.33;3.23;;;11.20;82.60;;;;;;4917025;29;20448;-73
2022/03/16 04:20:36;;;;;;;3.10;3.00;;;11.30;82.60;;;;;;4916526;29;20453;-72
2022/03/16 04:23:02;;;;;;;3.40;3.20;;;11.30;82.50;;;;;;4916917;29;20453;-73
2022/03/16 04:25:29;;;;;;;3.53;3.37;;;11.40;82.40;;;;;;4917311;29;20875;-72
2022/03/16 04:27:56;;;;;;;3.70;3.57;;;11.40;82.30;;;;;;4917510;29;20560;-72
2022/03/16 04:30:23;;;;;;;3.13;3.03;;;11.40;81.90;;;;;;4917068;29;20489;-72
2022/03/16 04:32:51;;;;;;;3.40;3.30;;;11.40;81.90;;;;;;4917081;29;20938;-72
2022/03/16 04:35:20;;;;;;;3.47;3.37;;;11.40;81.70;;;;;;4917559;29;21018;-72
2022/03/16 04:37:47;;;;;;;3.23;3.13;;;11.50;81.80;;;;;;4917703;29;20865;-73
2022/03/16 04:40:14;;;;;;;3.30;3.20;;;11.40;81.70;;;;;;4917541;29;20532;-73
2022/03/16 04:42:41;;;;;;;3.47;3.27;;;11.50;81.80;;;;;;4917584;29;20520;-72
2022/03/16 04:45:09;;;;;;;3.40;3.20;;;11.50;81.80;;;;;;4917339;29;20457;-73
2022/03/16 04:47:35;;;;;;;3.57;3.40;;;11.50;81.70;;;;;;4917355;29;20488;-73
2022/03/16 04:50:02;;;;;;;3.40;3.30;;;11.50;81.70;;;;;;4917099;29;20541;-73
2022/03/16 04:52:31;;;;;;;3.70;3.50;;;11.50;81.80;;;;;;4917261;29;20876;-73
2022/03/16 04:54:57;;;;;;;3.93;3.73;;;11.50;81.70;;;;;;4917172;29;20495;-73
2022/03/16 04:57:24;;;;;;;3.23;3.13;;;11.50;81.70;;;;;;4917075;29;20452;-72
2022/03/16 04:59:50;;;;;;;3.80;3.60;;;11.50;81.70;;;;;;4917099;29;20452;-73
2022/03/16 05:02:17;;;;;;;3.70;3.50;;;11.40;81.80;;;;;;4916731;29;20481;-73
2022/03/16 05:04:44;;;;;;;3.63;3.53;;;11.50;82.00;;;;;;4917169;29;20448;-73
2022/03/16 05:07:11;;;;;;;3.80;3.70;;;11.40;82.00;;;;;;4916965;29;20456;-71
2022/03/16 05:09:39;;;;;;;4.00;3.80;;;11.40;81.80;;;;;;4916920;29;20484;-73
2022/03/16 05:12:07;;;;;;;3.80;3.60;;;11.40;81.70;;;;;;4916857;29;20524;-73
2022/03/16 05:14:33;;;;;;;3.87;3.67;;;11.30;82.10;;;;;;4916613;29;20516;-73
2022/03/16 05:17:00;;;;;;;3.57;3.40;;;11.30;82.20;;;;;;4916523;29;20512;-73
2022/03/16 05:19:28;;;;;;;3.93;3.73;;;11.30;82.10;;;;;;4916617;29;20971;-73
2022/03/16 05:21:55;;;;;;;4.10;3.90;;;11.30;82.20;;;;;;4916530;29;21056;-73
2022/03/16 05:24:22;;;;;;;4.10;3.90;;;11.30;82.30;;;;;;4916709;29;20956;-73
2022/03/16 05:26:50;;;;;;;3.50;3.33;;;11.30;82.20;;;;;;4916697;29;20548;-73
2022/03/16 05:29:17;;;;;;;3.63;3.53;;;11.30;82.30;;;;;;4916742;29;20484;-73
2022/03/16 05:31:44;;;;;;;4.10;3.90;;;11.20;82.40;;;;;;4918247;29;20484;-73
2022/03/16 05:34:11;;;;;;;3.37;3.27;;;11.10;82.50;;;;;;4920164;29;20460;-73
2022/03/16 05:36:38;;;;;;;4.63;4.43;;;11.10;82.60;;;;;;4919804;29;20955;-73
2022/03/16 05:39:05;;;;;;;4.37;4.17;;;11.10;82.80;;;;;;4919790;29;20828;-73
2022/03/16 05:41:31;;;;;;;4.60;4.40;;;11.10;82.80;;;;;;4919835;29;20524;-73
2022/03/16 05:43:59;;;;;;;4.70;4.50;;;11.10;83.00;;;;;;4919873;29;20464;-73
2022/03/16 05:46:26;;;;;;;4.33;4.13;;;11.20;83.20;;;;;;4919958;29;20623;-73
2022/03/16 05:48:53;;;;;;;4.30;4.10;;;11.20;82.90;;;;;;4920330;29;20456;-73
2022/03/16 05:51:19;;;;;;;4.10;3.90;;;11.30;82.80;;;;;;4919831;29;20524;-73
2022/03/16 05:53:46;;;;;;;4.03;3.83;;;11.30;82.60;;;;;;4919870;29;20509;-73
2022/03/16 05:56:13;;;;;;;4.33;4.13;;;11.30;82.60;;;;;;4919813;29;20488;-73
2022/03/16 05:58:39;;;;;;;4.00;3.80;;;11.40;82.60;;;;;;4919773;29;20799;-73
2022/03/16 06:01:07;;;;;;;4.20;4.00;;;11.40;82.40;;;;;;4919807;29;20480;-73
2022/03/16 06:03:35;;;;;;;4.13;3.93;;;11.40;82.40;;;;;;4919786;29;20433;-73
2022/03/16 06:06:03;;;;;;;4.50;4.30;;;11.40;82.50;;;;;;4919826;29;20456;-73
2022/03/16 06:08:30;;;;;;;4.40;4.20;;;11.40;82.40;;;;;;4920081;29;20805;-70
2022/03/16 06:10:56;;;;;;;3.80;3.60;;;11.50;82.40;;;;;;4919629;29;20567;-73
2022/03/16 06:13:23;;;;;;;3.57;3.43;;;11.40;82.10;;;;;;4919239;29;20974;-73
2022/03/16 06:15:50;;;;;;;4.20;4.00;;;11.30;82.50;;;;;;4919568;29;20460;-74
2022/03/16 06:18:18;;;;;;;4.43;4.23;;;11.30;82.40;;;;;;4919378;29;20449;-73
2022/03/16 06:20:44;;;;;;;4.30;4.10;;;11.30;82.50;;;;;;4919391;29;20464;-72
2022/03/16 06:23:11;;;;;;;4.50;4.30;;;10.80;83.60;;;;;;4919460;29;20448;-73
2022/03/16 06:25:38;;;;;;;4.10;3.90;;;10.50;85.20;;;;;;4919466;29;20461;-73
2022/03/16 06:28:05;;;;;;;5.70;5.40;;;10.50;85.70;;;;;;4919294;29;20472;-73
2022/03/16 06:30:31;;;;;;;5.10;4.90;;;10.40;85.70;;;;;;4918875;29;21003;-73
2022/03/16 06:32:58;;;;;;;5.03;4.83;;;10.40;85.90;;;;;;4919411;29;20452;-73
2022/03/16 06:35:26;;;;;;;5.20;4.90;;;10.30;86.60;;;;;;4919153;29;20514;-73
2022/03/16 06:37:53;;;;;;;5.50;5.20;;;10.30;86.50;;;;;;4919098;29;20449;-73
2022/03/16 06:40:19;;;;;;;5.33;5.10;;;10.30;86.90;;;;;;4918972;29;20452;-73
2022/03/16 06:42:51;;;;;;;5.20;5.00;;;10.30;86.70;;;;;;4918393;29;20473;-73
2022/03/16 06:45:19;;;;;;;4.97;4.77;;;10.30;87.10;;;;;;4918989;29;20859;-72
2022/03/16 06:47:46;;;;;;;5.30;4.90;;;10.40;86.80;;;;;;4918945;29;20457;-73
2022/03/16 06:50:13;;;;;;;5.17;4.90;;;10.50;86.50;;;;;;4918317;29;21022;-73
2022/03/16 06:52:41;;;;;;;5.10;4.80;;;10.50;86.50;;;;;;4918607;29;20547;-73
2022/03/16 06:55:09;;;;;;;4.17;3.97;;;10.70;86.20;;;;;;4918448;29;20472;-73
2022/03/16 06:57:36;;;;;;;5.53;5.23;;;10.70;86.00;;;;;;4919235;29;20948;-73
2022/03/16 07:00:05;;;;;;;5.30;5.00;;;10.60;86.00;;;;;;4920150;29;20445;-73
2022/03/16 07:02:31;;;;;;;5.20;4.90;;;10.60;86.50;;;;;;4919690;29;20492;-73
2022/03/16 07:04:59;;;;;;;5.27;5.00;;;10.70;86.20;;;;;;4919812;29;20945;-73
2022/03/16 07:07:26;;;;;;;5.17;4.87;;;10.60;86.20;;;;;;4918612;29;20461;-72
2022/03/16 07:09:54;;;;;;;4.70;4.50;;;10.40;86.90;;;;;;4918653;29;20579;-73
2022/03/16 07:12:28;;;;;;;4.90;4.70;;;10.30;87.40;;;;;;4918388;29;20891;-73
2022/03/16 07:14:55;;;;;;;5.87;5.57;;;10.30;87.40;;;;;;4918882;29;20524;-73
2022/03/16 07:17:21;;;;;;;5.93;5.53;;;10.20;88.20;;;;;;4918582;29;20452;-72
2022/03/16 07:19:48;;;;;;;4.40;4.20;;;10.10;88.40;;;;;;4918359;29;20539;-73
2022/03/16 07:22:15;;;;;;;5.47;5.17;;;10.20;88.80;;;;;;4920052;29;20887;-73
2022/03/16 07:24:41;;;;;;;5.60;5.30;;;10.20;88.50;;;;;;4918476;29;20480;-73
2022/03/16 07:27:11;;;;;;;6.00;5.70;;;9.90;89.20;;;;;;4918134;29;20952;-72
2022/03/16 07:29:38;;;;;;;5.50;5.20;;;9.90;90.20;;;;;;4918262;29;20519;-72
2022/03/16 07:32:06;;;;;;;6.03;5.63;;;9.90;89.90;;;;;;4918730;29;20599;-73
2022/03/16 07:34:33;;;;;;;6.07;5.67;;;9.90;89.90;;;;;;4918924;29;20523;-73
2022/03/16 07:36:59;;;;;;;5.23;5.00;;;9.80;89.90;;;;;;4918743;29;20520;-73
2022/03/16 07:39:26;;;;;;;5.90;5.60;;;9.90;90.70;;;;;;4917949;29;20453;-73
2022/03/16 07:41:53;;;;;;;5.50;5.20;;;9.80;90.40;;;;;;4917954;29;20480;-73
2022/03/16 07:44:21;;;;;;;5.27;5.07;;;9.80;91.00;;;;;;4917653;29;20947;-73
2022/03/16 07:46:47;;;;;;;5.40;5.10;;;9.90;90.00;;;;;;4917592;29;20875;-73
2022/03/16 07:49:14;;;;;;;5.23;4.93;;;9.60;90.20;;;;;;4917453;29;20453;-74
2022/03/16 07:51:41;;;;;;;5.73;5.43;;;9.60;91.30;;;;;;4917398;29;20500;-74
2022/03/16 07:54:07;;;;;;;6.07;5.77;;;9.70;92.40;;;;;;4916751;29;20456;-74
2022/03/16 07:56:34;;;;;;;5.93;5.63;;;9.70;92.40;;;;;;4917428;29;20471;-73
2022/03/16 07:59:01;;;;;;;4.63;4.33;;;9.80;92.20;;;;;;4917367;29;20508;-74
2022/03/16 08:01:29;;;;;;;5.10;4.90;;;9.90;91.70;;;;;;4917149;29;20484;-74
2022/03/16 08:03:56;;;;;;;4.63;4.43;;;10.20;90.60;;;;;;4917404;29;20508;-74
2022/03/16 08:06:23;;;;;;;4.80;4.60;;;10.40;89.60;;;;;;4917287;29;20457;-74
2022/03/16 08:08:49;;;;;;;5.57;5.27;;;10.50;88.70;;;;;;4917268;29;20453;-73
2022/03/16 08:11:16;;;;;;;4.97;4.70;;;10.40;88.40;;;;;;4917185;29;20903;-74
2022/03/16 08:13:43;;;;;;;4.57;4.37;;;10.40;88.10;;;;;;4917617;29;20519;-73
2022/03/16 08:16:09;;;;;;;4.93;4.67;;;10.40;88.00;;;;;;4917433;29;21000;-73
2022/03/16 08:18:37;;;;;;;4.97;4.77;;;10.40;88.30;;;;;;4917455;29;21016;-73
2022/03/16 08:21:06;;;;;;;5.50;5.10;;;10.40;88.20;;;;;;4917945;29;20492;-73
2022/03/16 08:23:33;;;;;;;5.40;5.10;;;10.30;88.40;;;;;;4917623;29;20555;-73
2022/03/16 08:25:59;;;;;;;5.37;5.07;;;10.30;88.70;;;;;;4917763;29;20886;-73
2022/03/16 08:28:26;;;;;;;5.40;5.10;;;10.30;88.50;;;;;;4917367;29;20953;-73
2022/03/16 08:30:53;;;;;;;5.27;4.97;;;10.10;89.60;;;;;;4917629;29;20552;-72
2022/03/16 08:33:20;;;;;;;5.87;5.57;;;10.30;89.60;;;;;;4917784;29;20876;-74
2022/03/16 08:35:48;;;;;;;4.73;4.53;;;10.00;89.90;;;;;;4917429;29;20457;-73
2022/03/16 08:38:14;;;;;;;4.83;4.60;;;10.00;90.00;;;;;;4917280;29;20503;-74
2022/03/16 08:40:41;;;;;;;4.63;4.43;;;9.90;90.30;;;;;;4917424;29;20448;-73
2022/03/16 08:43:08;;;;;;;4.37;4.17;;;9.90;89.60;;;;;;4917280;29;20459;-74
2022/03/16 08:45:35;;;;;;;4.43;4.23;;;9.80;89.40;;;;;;4917304;29;20449;-73
2022/03/16 08:48:02;;;;;;;3.60;3.40;;;9.80;89.80;;;;;;4917560;29;20452;-74
2022/03/16 08:50:30;;;;;;;3.90;3.70;;;9.70;89.70;;;;;;4917272;29;20480;-74
2022/03/16 08:52:58;;;;;;;4.43;4.23;;;9.60;90.30;;;;;;4917423;29;20504;-73
2022/03/16 08:55:25;;;;;;;4.10;3.90;;;9.40;90.30;;;;;;4917386;29;20520;-74
2022/03/16 08:57:51;;;;;;;4.30;4.10;;;9.50;91.30;;;;;;4916930;29;20972;-74
2022/03/16 09:00:18;;;;;;;4.40;4.20;;;9.40;91.30;;;;;;4916789;29;20863;-73
2022/03/16 09:02:45;;;;;;;4.70;4.50;;;9.60;91.40;;;;;;4916740;29;20847;-73
2022/03/16 09:05:15;;;;;;;4.27;4.07;;;9.70;90.70;;;;;;4918091;29;20444;-73
2022/03/16 09:07:41;;;;;;;4.20;4.00;;;9.80;91.00;;;;;;4920270;29;20882;-73
2022/03/16 09:10:10;;;;;;;4.43;4.23;;;9.80;90.30;;;;;;4920656;29;20567;-74
2022/03/16 09:12:37;;;;;;;3.67;3.47;;;9.80;90.50;;;;;;4920557;29;20468;-72
2022/03/16 09:15:05;;;;;;;4.23;4.03;;;9.80;90.30;;;;;;4920669;29;20539;-74
2022/03/16 09:17:33;;;;;;;4.00;3.80;;;9.70;89.90;;;;;;4920383;29;20456;-73
2022/03/16 09:20:00;;;;;;;4.17;3.87;;;9.60;90.70;;;;;;4920521;29;20525;-74
2022/03/16 09:22:26;;;;;;;4.20;4.00;;;9.70;91.10;;;;;;4920251;29;20473;-74
2022/03/16 09:24:55;;;;;;;4.10;3.90;;;9.70;90.00;;;;;;4920595;29;20453;-74
2022/03/16 09:27:23;;;;;;;3.97;3.77;;;9.60;90.60;;;;;;4920128;29;20463;-73
2022/03/16 09:29:50;;;;;;;4.53;4.30;;;9.60;91.20;;;;;;4920298;29;21033;-73
2022/03/16 09:32:18;;;;;;;3.73;3.53;;;9.60;90.70;;;;;;4920477;29;20480;-74
2022/03/16 09:34:45;;;;;;;3.80;3.60;;;9.60;91.00;;;;;;4920666;29;20492;-73
2022/03/16 09:37:12;;;;;;;3.60;3.40;;;9.60;90.60;;;;;;4920536;29;20506;-72
2022/03/16 09:39:39;;;;;;;3.50;3.40;;;9.60;90.60;;;;;;4920108;29;20532;-73
2022/03/16 09:42:08;;;;;;;3.73;3.53;;;9.50;90.80;;;;;;4920118;29;20465;-73
2022/03/16 09:44:39;;;;;;;3.97;3.77;;;9.50;90.60;;;;;;4920400;29;20480;-75
2022/03/16 09:53:11;;;;;;;3.33;3.23;;;9.60;89.90;;;;;;4904228;29;20825;-71
2022/03/16 09:55:39;;;;;;;3.70;3.53;;;9.70;89.80;;;;;;4919524;29;20460;-71
2022/03/16 09:58:06;;;;;;;3.80;3.60;;;9.80;89.90;;;;;;4919541;29;20602;-71
2022/03/16 10:00:34;;;;;;;3.20;3.10;;;9.90;89.10;;;;;;4919535;29;20457;-71
2022/03/16 10:03:02;;;;;;;3.00;2.90;;;10.00;88.30;;;;;;4919153;29;20468;-70
2022/03/16 10:05:29;;;;;;;3.00;2.90;;;9.90;87.70;;;;;;4919955;29;20464;-71
2022/03/16 10:07:59;;;;;;;3.10;3.00;;;9.80;88.40;;;;;;4919326;29;20457;-71
2022/03/16 10:13:15;;;;;;;3.20;3.10;;;9.90;88.50;;;;;;4919129;29;20492;-72
2022/03/16 10:15:43;;;;;;;2.90;2.80;;;10.00;87.60;;;;;;4919981;29;20945;-70
2022/03/16 10:18:10;;;;;;;3.23;3.10;;;10.00;87.50;;;;;;4918755;29;20449;-70
2022/03/16 10:20:39;;;;;;;2.97;2.87;;;10.00;86.90;;;;;;4918962;29;20496;-70
2022/03/16 10:23:08;;;;;;;3.00;2.90;;;9.90;87.30;;;;;;4918568;29;20945;-71
2022/03/16 10:25:36;;;;;;;2.97;2.87;;;9.90;86.60;;;;;;4918909;29;20457;-70
2022/03/16 10:28:11;;;;;;;2.97;2.77;;;9.80;87.20;;;;;;4918929;29;20449;-70
2022/03/16 10:30:39;;;;;;;2.93;2.83;;;9.90;87.50;;;;;;4918471;29;21078;-70
2022/03/16 10:33:08;;;;;;;4.13;3.93;;;9.90;86.90;;;;;;4918787;29;20452;-70
2022/03/16 10:35:35;;;;;;;3.20;3.00;;;9.90;87.20;;;;;;4918824;29;20453;-71
2022/03/16 10:38:09;;;;;;;2.60;2.50;;;10.20;87.20;;;;;;4926524;29;20965;-70
2022/03/16 10:40:35;;;;;;;2.70;2.60;;;10.30;86.40;;;;;;4923835;29;20487;-70
2022/03/16 10:49:00;;;;;;;2.60;2.50;;;10.60;84.60;;;;;;4893623;29;20496;-70
2022/03/16 10:51:27;;;;;;;3.00;2.80;;;10.60;84.80;;;;;;4918197;29;21036;-71
2022/03/16 10:53:54;;;;;;;2.50;2.40;;;10.60;84.10;;;;;;4918412;29;20453;-70
2022/03/16 10:56:21;;;;;;;2.87;2.77;;;10.60;84.70;;;;;;4918357;29;20534;-70
2022/03/16 10:58:52;;;;;;;2.70;2.60;;;10.60;84.70;;;;;;4918478;29;20460;-70
2022/03/16 11:01:19;;;;;;;3.00;2.90;;;10.70;84.10;;;;;;4918092;29;20516;-70
2022/03/16 11:03:47;;;;;;;2.67;2.57;;;10.90;83.70;;;;;;4918892;29;20456;-70
2022/03/16 11:06:18;;;;;;;2.70;2.60;;;10.70;83.60;;;;;;4917892;29;20973;-70
2022/03/16 11:08:45;;;;;;;2.37;2.27;;;10.80;84.00;;;;;;4918159;29;20441;-70
2022/03/16 11:13:58;;;;;;;2.60;2.50;;;10.90;83.80;;;;;;4918125;29;20908;-70
2022/03/16 11:16:25;;;;;;;2.50;2.40;;;11.10;83.80;;;;;;4918067;29;20452;-70
2022/03/16 11:18:52;;;;;;;2.70;2.60;;;11.10;82.00;;;;;;4918049;29;20459;-70
2022/03/16 11:21:28;;;;;;;3.00;2.90;;;11.10;83.10;;;;;;4917958;29;20472;-69
2022/03/16 11:26:52;;;;;;;3.00;2.90;;;11.40;82.20;;;;;;4918179;29;20488;-70
2022/03/16 11:29:24;;;;;;;2.40;2.30;;;11.60;82.20;;;;;;4918374;29;20432;-70
2022/03/16 11:31:51;;;;;;;2.50;2.40;;;11.80;81.90;;;;;;4917647;29;20492;-70
2022/03/16 11:34:22;;;;;;;2.70;2.60;;;11.70;81.20;;;;;;4917786;29;20511;-70
2022/03/16 11:37:01;;;;;;;2.30;2.20;;;11.60;81.60;;;;;;4917765;29;20433;-72
2022/03/16 11:39:40;;;;;;;2.57;2.47;;;11.70;81.30;;;;;;4917677;29;20441;-71
2022/03/16 11:42:08;;;;;;;2.40;2.30;;;11.80;80.90;;;;;;4917584;29;20895;-71
2022/03/16 11:44:34;;;;;;;3.03;2.93;;;12.00;80.80;;;;;;4917613;29;20491;-70
2022/03/16 11:47:35;;;;;;;2.60;2.50;;;11.90;79.90;;;;;;4917404;29;20448;-70
2022/03/16 11:50:11;;;;;;;2.40;2.30;;;11.90;80.60;;;;;;4917462;29;20531;-71
2022/03/16 11:53:04;;;;;;;2.50;2.40;;;12.10;80.80;;;;;;4917108;29;20488;-70
2022/03/16 11:55:45;;;;;;;2.33;2.23;;;12.30;79.90;;;;;;4917671;29;20468;-69
2022/03/16 11:58:26;;;;;;;2.23;2.13;;;12.70;79.20;;;;;;4917524;29;20436;-71
2022/03/16 12:01:22;;;;;;;2.00;1.90;;;12.70;78.40;;;;;;4917358;29;20485;-71
2022/03/16 12:03:53;;;;;;;2.00;1.90;;;12.80;77.70;;;;;;4917409;29;20457;-70
2022/03/16 12:06:20;;;;;;;1.90;1.80;;;12.80;77.40;;;;;;4917507;29;20437;-71
2022/03/16 12:08:58;;;;;;;2.30;2.20;;;12.70;78.10;;;;;;4917519;29;20503;-70
2022/03/16 12:14:09;;;;;;;2.27;2.17;;;12.60;78.20;;;;;;4917430;29;20412;-70
2022/03/16 12:16:42;;;;;;;1.90;1.80;;;12.60;78.10;;;;;;4917237;29;20453;-70
2022/03/16 12:19:28;;;;;;;2.30;2.20;;;12.50;78.10;;;;;;4917311;29;20527;-70
2022/03/16 12:21:56;;;;;;;2.30;2.20;;;12.60;78.40;;;;;;4917767;29;20584;-70
2022/03/16 12:30:07;;;;;;;2.20;2.10;;;12.10;79.50;;;;;;4917615;29;20408;-71
2022/03/16 12:32:35;;;;;;;2.23;2.13;;;12.20;79.00;;;;;;4917323;29;20496;-70
2022/03/16 12:35:04;;;;;;;2.37;2.27;;;12.10;79.80;;;;;;4917313;29;20464;-71
2022/03/16 12:37:31;;;;;;;2.00;1.90;;;12.20;79.70;;;;;;4917154;29;20497;-69
2022/03/16 12:39:59;;;;;;;2.27;2.17;;;12.30;79.20;;;;;;4919071;29;20460;-71
2022/03/16 12:42:31;;;;;;;2.27;2.17;;;12.40;78.70;;;;;;4921311;29;20475;-71
2022/03/16 12:45:05;;;;;;;2.10;2.00;;;12.40;78.90;;;;;;4920857;29;20975;-71
2022/03/16 12:47:36;;;;;;;1.80;1.70;;;12.30;78.70;;;;;;4921310;29;20444;-70
2022/03/16 12:50:03;;;;;;;2.10;2.00;;;12.40;78.70;;;;;;4921414;29;20444;-70
2022/03/16 12:52:30;;;;;;;2.03;1.93;;;12.50;78.60;;;;;;4920950;29;20571;-69
2022/03/16 12:55:00;;;;;;;2.47;2.30;;;12.50;78.50;;;;;;4920922;29;20531;-71
2022/03/16 12:57:29;;;;;;;2.07;1.97;;;12.70;77.80;;;;;;4920791;29;20448;-70
2022/03/16 12:59:57;;;;;;;2.60;2.50;;;12.70;77.40;;;;;;4920665;29;20460;-72
2022/03/16 13:02:27;;;;;;;2.10;2.00;;;12.60;77.80;;;;;;4920299;29;20488;-70
2022/03/16 13:04:56;;;;;;;2.70;2.50;;;12.50;78.20;;;;;;4920766;29;20461;-70
2022/03/16 13:07:24;;;;;;;2.10;2.00;;;12.50;78.20;;;;;;4920691;29;20479;-70
2022/03/16 13:09:51;;;;;;;2.10;2.00;;;12.60;78.10;;;;;;4920589;29;20527;-70
2022/03/16 13:12:22;;;;;;;2.10;2.00;;;12.70;77.60;;;;;;4920240;29;21000;-70
2022/03/16 13:14:48;;;;;;;2.17;2.07;;;12.70;77.60;;;;;;4920333;29;20917;-70
2022/03/16 13:17:17;;;;;;;1.90;1.80;;;12.80;77.50;;;;;;4920464;29;20478;-70
2022/03/16 13:19:49;;;;;;;1.93;1.83;;;12.90;77.30;;;;;;4920295;29;20464;-70
2022/03/16 13:22:17;;;;;;;1.97;1.87;;;13.10;76.80;;;;;;4920421;29;20476;-70
2022/03/16 13:24:50;;;;;;;1.73;1.63;;;13.00;76.00;;;;;;4920296;29;20460;-70
2022/03/16 13:27:20;;;;;;;1.77;1.67;;;12.90;76.30;;;;;;4920300;29;20437;-69
2022/03/16 13:29:49;;;;;;;2.10;2.00;;;12.80;76.60;;;;;;4920708;29;20456;-72
2022/03/16 13:32:17;;;;;;;2.30;2.20;;;13.00;77.10;;;;;;4919899;29;20492;-70
2022/03/16 13:34:44;;;;;;;2.13;2.03;;;13.20;76.60;;;;;;4919560;29;21011;-70
2022/03/16 13:37:25;;;;;;;2.00;1.90;;;13.40;75.70;;;;;;4919869;29;20467;-69
2022/03/16 13:40:03;;;;;;;1.93;1.83;;;13.50;75.10;;;;;;4919738;29;20437;-70
2022/03/16 13:42:33;;;;;;;1.97;1.87;;;13.50;74.90;;;;;;4919738;29;20495;-70
2022/03/16 13:45:23;;;;;;;2.20;2.10;;;13.50;75.00;;;;;;4919642;29;20508;-71
2022/03/16 13:48:08;;;;;;;2.03;1.93;;;13.60;74.30;;;;;;4915734;29;20475;-70
2022/03/16 13:50:35;;;;;;;1.80;1.70;;;13.60;74.90;;;;;;4919703;29;20441;-71
2022/03/16 13:53:15;;;;;;;2.30;2.20;;;13.70;74.50;;;;;;4918151;29;20856;-71
2022/03/16 13:55:49;;;;;;;1.90;1.80;;;13.70;74.10;;;;;;4920048;29;20433;-70
2022/03/16 13:58:19;;;;;;;2.10;2.00;;;13.80;74.20;;;;;;4919373;29;20441;-72
2022/03/16 14:00:48;;;;;;;2.10;2.00;;;13.90;73.80;;;;;;4919043;29;21087;-70
2022/03/16 14:03:22;;;;;;;3.07;2.00;;;13.80;74.40;;;;;;4919605;29;20437;-71
2022/03/16 14:05:48;;;;;;;1.93;1.83;;;13.60;74.50;;;;;;4919445;29;20930;-71
2022/03/16 14:08:15;;;;;;;2.10;2.00;;;13.50;74.30;;;;;;4919014;29;20957;-70
2022/03/16 14:10:43;;;;;;;2.00;1.90;;;13.40;74.90;;;;;;4918948;29;20960;-71
2022/03/16 14:13:11;;;;;;;1.80;1.70;;;13.40;75.60;;;;;;4918810;29;20547;-71
2022/03/16 14:15:40;;;;;;;1.87;1.77;;;13.50;75.10;;;;;;4919134;29;20515;-71
2022/03/16 14:18:12;;;;;;;1.90;1.80;;;13.40;75.10;;;;;;4919268;29;20453;-71
2022/03/16 14:20:41;;;;;;;1.70;1.60;;;13.40;75.40;;;;;;4919275;29;20490;-70
2022/03/16 14:23:08;;;;;;;1.73;1.63;;;13.40;75.10;;;;;;4919019;29;20448;-71
2022/03/16 14:25:37;;;;;;;1.83;1.73;;;13.50;75.60;;;;;;4919088;29;20516;-71
2022/03/16 14:28:05;;;;;;;2.10;2.00;;;13.50;75.00;;;;;;4918734;29;21031;-70
2022/03/16 14:30:34;;;;;;;2.10;2.00;;;13.20;75.60;;;;;;4918547;29;21082;-71
2022/03/16 14:33:04;;;;;;;1.87;1.77;;;13.20;76.00;;;;;;4918669;29;20488;-71
2022/03/16 14:35:34;;;;;;;2.30;2.10;;;13.20;75.60;;;;;;4919071;29;20437;-71
2022/03/16 14:38:04;;;;;;;1.87;1.77;;;12.90;76.60;;;;;;4918781;29;20457;-71
2022/03/16 14:40:32;;;;;;;1.90;1.80;;;12.90;77.10;;;;;;4918657;29;20493;-71
2022/03/16 14:42:59;;;;;;;2.10;2.00;;;12.90;77.20;;;;;;4918555;29;20815;-71
2022/03/16 14:45:27;;;;;;;2.03;1.93;;;12.80;77.00;;;;;;4918645;29;20460;-71
2022/03/16 14:47:55;;;;;;;2.30;2.20;;;12.70;77.40;;;;;;4918610;29;20523;-71
2022/03/16 14:50:29;;;;;;;2.23;2.13;;;12.70;77.30;;;;;;4918608;29;20460;-71
2022/03/16 14:52:57;;;;;;;2.33;2.23;;;12.60;77.40;;;;;;4918451;29;20473;-71
2022/03/16 14:55:23;;;;;;;2.17;2.07;;;12.60;78.00;;;;;;4917932;29;20445;-71
2022/03/16 14:57:50;;;;;;;1.90;1.80;;;12.50;77.60;;;;;;4917812;29;20460;-71
2022/03/16 15:00:17;;;;;;;2.17;2.07;;;12.40;78.30;;;;;;4917800;29;20456;-71
2022/03/16 15:02:44;;;;;;;2.37;2.27;;;12.40;78.20;;;;;;4917380;29;20483;-71
2022/03/16 15:05:11;;;;;;;2.10;2.00;;;12.50;78.30;;;;;;4917846;29;20456;-71
2022/03/16 15:07:39;;;;;;;1.90;1.80;;;12.50;77.60;;;;;;4917512;29;20803;-71
2022/03/16 15:10:08;;;;;;;2.07;1.93;;;12.50;77.90;;;;;;4918352;29;20460;-71
2022/03/16 15:12:35;;;;;;;2.10;2.00;;;12.60;77.30;;;;;;4917692;29;20503;-70
2022/03/16 15:15:03;;;;;;;2.30;2.20;;;12.50;77.40;;;;;;4918398;29;20460;-71
2022/03/16 15:17:31;;;;;;;2.70;2.60;;;12.40;77.60;;;;;;4917693;29;20868;-70
2022/03/16 15:19:59;;;;;;;2.20;2.10;;;12.40;77.90;;;;;;4917306;29;20924;-70
2022/03/16 15:22:26;;;;;;;2.30;2.20;;;12.50;77.40;;;;;;4917610;29;20475;-71
2022/03/16 15:24:54;;;;;;;2.33;2.20;;;12.40;77.80;;;;;;4918048;29;20468;-71
2022/03/16 15:27:21;;;;;;;2.33;2.23;;;12.40;77.60;;;;;;4917819;29;20457;-71
2022/03/16 15:29:49;;;;;;;2.33;2.23;;;12.40;77.60;;;;;;4917510;29;20452;-70
2022/03/16 15:32:17;;;;;;;2.50;2.40;;;12.30;77.70;;;;;;4917302;29;20484;-70
2022/03/16 15:34:46;;;;;;;2.00;1.90;;;12.20;78.40;;;;;;4917399;29;20453;-70
2022/03/16 15:37:15;;;;;;;2.60;2.50;;;12.20;79.00;;;;;;4917532;29;20449;-70
2022/03/16 15:42:38;;;;;;;2.40;2.30;;;12.40;78.60;;;;;;4917814;29;20464;-71
2022/03/16 15:42:43;;;;;;;2.30;2.20;;;12.40;78.20;;;;;;4917253;29;20520;-71
2022/03/16 15:45:12;;;;;;;2.33;2.23;;;12.10;78.60;;;;;;4918668;29;20433;-71
2022/03/16 15:47:39;;;;;;;2.30;2.10;;;12.10;79.10;;;;;;4916939;29;20949;-70
2022/03/16 15:50:07;;;;;;;2.00;1.90;;;12.00;79.30;;;;;;4917914;29;20464;-71
2022/03/16 15:52:34;;;;;;;1.93;1.83;;;12.00;79.20;;;;;;4917680;29;20489;-71
2022/03/16 15:55:01;;;;;;;2.30;2.20;;;12.10;79.40;;;;;;4917129;29;20449;-70
2022/03/16 15:57:29;;;;;;;2.40;2.30;;;12.20;78.80;;;;;;4917439;29;20453;-72
2022/03/16 15:59:56;;;;;;;2.20;2.10;;;12.20;78.60;;;;;;4918045;29;20467;-70
2022/03/16 16:02:23;;;;;;;1.80;1.70;;;12.40;78.40;;;;;;4917142;29;20492;-71
2022/03/16 16:04:49;;;;;;;2.37;2.27;;;12.30;78.10;;;;;;4917422;29;20460;-71
2022/03/16 16:07:17;;;;;;;2.07;1.97;;;12.30;78.40;;;;;;4917465;29;20560;-71
2022/03/16 16:09:44;;;;;;;2.40;2.30;;;12.30;78.20;;;;;;4917503;29;20456;-71
2022/03/16 16:12:12;;;;;;;2.10;2.00;;;12.40;78.20;;;;;;4917178;29;20488;-71
2022/03/16 16:14:40;;;;;;;2.00;1.90;;;12.20;78.20;;;;;;4917924;29;20460;-71
2022/03/16 16:17:08;;;;;;;2.00;1.90;;;12.10;78.50;;;;;;4917156;29;20456;-70
2022/03/16 16:19:37;;;;;;;3.53;2.30;;;12.10;78.80;;;;;;4917221;29;20511;-69
2022/03/16 16:22:04;;;;;;;2.23;2.13;;;12.00;79.40;;;;;;4917041;29;20487;-72
2022/03/16 16:24:31;;;;;;;2.17;2.00;;;12.00;79.00;;;;;;4917291;29;20453;-71
2022/03/16 16:26:57;;;;;;;2.20;2.10;;;12.00;79.20;;;;;;4917247;29;20452;-70
2022/03/16 16:29:28;;;;;;;2.20;2.10;;;12.10;78.70;;;;;;4917207;29;20475;-71
2022/03/16 16:31:56;;;;;;;2.10;2.00;;;12.00;78.60;;;;;;4916861;29;20483;-71
2022/03/16 16:34:23;;;;;;;2.23;2.13;;;11.80;79.20;;;;;;4917034;29;20559;-71
2022/03/16 16:36:51;;;;;;;2.00;1.90;;;11.90;78.90;;;;;;4916947;29;20921;-71
2022/03/16 16:39:18;;;;;;;1.90;1.80;;;11.90;78.80;;;;;;4916985;29;20457;-71
2022/03/16 16:41:45;;;;;;;1.83;1.73;;;12.10;78.50;;;;;;4917189;29;20469;-71
2022/03/16 16:44:13;;;;;;;2.30;2.20;;;12.10;78.20;;;;;;4922851;29;20445;-70
2022/03/16 16:46:40;;;;;;;2.33;2.23;;;12.00;78.30;;;;;;4925659;29;20463;-71
2022/03/16 16:49:08;;;;;;;2.27;2.17;;;12.00;78.70;;;;;;4917144;29;20520;-70
2022/03/16 16:51:35;;;;;;;2.03;1.93;;;12.00;78.90;;;;;;4916804;29;20477;-70
2022/03/16 16:54:01;;;;;;;1.90;1.80;;;12.00;78.50;;;;;;4917030;29;20511;-71
2022/03/16 16:56:28;;;;;;;2.23;2.13;;;11.80;78.70;;;;;;4917266;29;20510;-70
2022/03/16 16:58:55;;;;;;;2.60;1.90;;;11.50;79.00;;;;;;4917306;29;20820;-70
2022/03/16 17:01:23;;;;;;;2.20;2.10;;;11.50;79.40;;;;;;4916766;29;20485;-70
2022/03/16 17:03:51;;;;;;;1.90;1.80;;;11.40;79.30;;;;;;4916932;29;20452;-71
2022/03/16 17:06:20;;;;;;;2.07;1.97;;;11.30;79.30;;;;;;4916873;29;20544;-70
2022/03/16 17:08:47;;;;;;;1.77;1.67;;;11.30;79.60;;;;;;4916799;29;20452;-70
2022/03/16 17:11:14;;;;;;;2.17;2.07;;;11.20;79.70;;;;;;4916683;29;20874;-70
2022/03/16 17:13:41;;;;;;;2.17;2.07;;;11.40;79.40;;;;;;4916498;29;21011;-70
2022/03/16 17:16:08;;;;;;;1.80;1.70;;;11.20;79.70;;;;;;4916599;29;20456;-69
2022/03/16 17:18:36;;;;;;;2.10;2.00;;;11.20;79.70;;;;;;4916516;29;20457;-70
2022/03/16 17:21:06;;;;;;;1.80;1.70;;;11.20;80.20;;;;;;4916453;29;20532;-70
2022/03/16 17:23:36;;;;;;;2.10;2.00;;;11.30;80.20;;;;;;4916316;29;20437;-70